createdAt,value
2022-12-28T00:00:29.837Z,0.00
2022-12-28T00:01:30.038Z,0.00
2022-12-28T00:02:30.117Z,0.00
2022-12-28T00:03:30.337Z,0.00
2022-12-28T00:04:30.487Z,0.00
2022-12-28T00:05:30.648Z,0.00
2022-12-28T00:06:30.837Z,0.00
2022-12-28T00:07:31.037Z,0.00
2022-12-28T00:08:31.198Z,0.00
2022-12-28T00:09:31.400Z,0.00
2022-12-28T00:11:09.463Z,0.00
2022-12-28T00:11:32.738Z,0.00
2022-12-28T00:12:31.941Z,0.00
2022-12-28T00:13:32.118Z,0.00
2022-12-28T00:14:32.310Z,0.00
2022-12-28T00:15:32.440Z,0.00
2022-12-28T00:16:32.664Z,0.00
2022-12-28T00:17:32.784Z,0.00
2022-12-28T00:18:32.946Z,0.00
2022-12-28T00:19:33.146Z,0.00
2022-12-28T00:20:33.295Z,0.00
2022-12-28T00:21:33.487Z,0.00
2022-12-28T00:22:33.647Z,0.00
2022-12-28T00:23:33.839Z,0.00
2022-12-28T00:24:34.010Z,0.00
2022-12-28T00:25:34.167Z,0.00
2022-12-28T00:26:34.341Z,0.00
2022-12-28T00:27:34.497Z,0.00
2022-12-28T00:28:34.656Z,0.00
2022-12-28T00:29:34.908Z,0.00
2022-12-28T00:30:35.015Z,0.00
2022-12-28T00:31:35.253Z,0.00
2022-12-28T00:32:35.354Z,0.00
2022-12-28T00:33:35.544Z,0.00
2022-12-28T00:34:35.718Z,0.00
2022-12-28T00:35:35.889Z,0.00
2022-12-28T00:37:09.109Z,0.00
2022-12-28T00:37:37.234Z,0.00
2022-12-28T00:38:36.405Z,0.00
2022-12-28T00:39:36.583Z,0.00
2022-12-28T00:40:36.743Z,0.00
2022-12-28T00:41:36.903Z,0.00
2022-12-28T00:42:37.056Z,0.00
2022-12-28T00:43:37.250Z,0.00
2022-12-28T00:44:37.421Z,0.00
2022-12-28T00:45:37.597Z,0.00
2022-12-28T00:46:37.755Z,0.00
2022-12-28T00:47:38.014Z,0.00
2022-12-28T00:48:38.128Z,0.00
2022-12-28T00:49:38.330Z,0.00
2022-12-28T00:50:38.470Z,0.00
2022-12-28T00:51:38.674Z,0.00
2022-12-28T00:52:38.830Z,0.00
2022-12-28T00:53:38.993Z,0.00
2022-12-28T00:54:39.165Z,0.00
2022-12-28T00:55:39.332Z,0.00
2022-12-28T00:56:39.486Z,0.00
2022-12-28T00:57:39.672Z,0.00
2022-12-28T00:58:39.864Z,0.00
2022-12-28T00:59:40.040Z,0.00
2022-12-28T01:00:40.209Z,0.00
2022-12-28T01:01:40.480Z,0.00
2022-12-28T01:02:40.558Z,0.00
2022-12-28T01:03:40.715Z,0.00
2022-12-28T01:04:40.884Z,0.00
2022-12-28T01:05:41.062Z,0.00
2022-12-28T01:06:41.213Z,0.00
2022-12-28T01:07:41.407Z,0.00
2022-12-28T01:08:41.567Z,0.00
2022-12-28T01:09:41.723Z,0.00
2022-12-28T01:10:41.884Z,0.00
2022-12-28T01:11:42.075Z,0.00
2022-12-28T01:12:42.225Z,0.00
2022-12-28T01:13:42.425Z,0.00
2022-12-28T01:14:42.593Z,0.00
2022-12-28T01:15:42.758Z,0.00
2022-12-28T01:16:42.921Z,0.00
2022-12-28T01:17:43.092Z,0.00
2022-12-28T01:18:43.249Z,0.00
2022-12-28T01:19:46.218Z,0.00
2022-12-28T01:20:44.593Z,0.00
2022-12-28T01:21:43.773Z,0.00
2022-12-28T01:22:43.930Z,0.00
2022-12-28T01:23:44.183Z,0.00
2022-12-28T01:24:44.301Z,0.00
2022-12-28T01:25:44.470Z,0.00
2022-12-28T01:26:44.621Z,0.00
2022-12-28T01:27:44.815Z,0.00
2022-12-28T01:28:44.977Z,0.00
2022-12-28T01:29:45.188Z,0.00
2022-12-28T01:30:45.331Z,0.00
2022-12-28T01:31:45.587Z,0.00
2022-12-28T01:32:45.660Z,0.00
2022-12-28T01:33:45.850Z,0.00
2022-12-28T01:34:46.064Z,0.00
2022-12-28T01:35:46.230Z,0.00
2022-12-28T01:36:46.380Z,0.00
2022-12-28T01:37:46.553Z,0.00
2022-12-28T01:38:46.705Z,0.00
2022-12-28T01:39:46.915Z,0.00
2022-12-28T01:40:47.064Z,0.00
2022-12-28T01:41:47.259Z,0.00
2022-12-28T01:42:47.417Z,0.00
2022-12-28T01:43:47.610Z,0.00
2022-12-28T01:44:47.833Z,0.00
2022-12-28T01:45:48.016Z,0.00
2022-12-28T01:46:48.133Z,0.00
2022-12-28T01:47:48.320Z,0.00
2022-12-28T01:48:48.500Z,0.00
2022-12-28T01:49:48.712Z,0.00
2022-12-28T01:50:48.860Z,0.00
2022-12-28T01:51:49.051Z,0.00
2022-12-28T01:52:49.199Z,0.00
2022-12-28T01:53:49.398Z,0.00
2022-12-28T01:54:49.576Z,0.00
2022-12-28T01:55:49.737Z,0.00
2022-12-28T01:56:49.921Z,0.00
2022-12-28T01:57:50.115Z,0.00
2022-12-28T01:58:50.279Z,0.00
2022-12-28T01:59:50.472Z,0.00
2022-12-28T02:00:50.686Z,0.00
2022-12-28T02:01:50.951Z,0.00
2022-12-28T02:02:51.046Z,0.00
2022-12-28T02:03:51.179Z,0.00
2022-12-28T02:04:51.339Z,0.00
2022-12-28T02:05:51.498Z,0.00
2022-12-28T02:06:51.648Z,0.00
2022-12-28T02:07:51.847Z,0.00
2022-12-28T02:08:51.997Z,0.00
2022-12-28T02:10:43.778Z,0.00
2022-12-28T02:10:53.357Z,0.00
2022-12-28T02:11:52.534Z,0.00
2022-12-28T02:12:52.739Z,0.00
2022-12-28T02:13:52.870Z,0.00
2022-12-28T02:14:53.046Z,0.00
2022-12-28T02:15:53.207Z,0.00
2022-12-28T02:16:53.395Z,0.00
2022-12-28T02:17:53.527Z,0.00
2022-12-28T02:18:53.684Z,0.00
2022-12-28T02:19:53.855Z,0.00
2022-12-28T02:20:54.016Z,0.00
2022-12-28T02:21:54.207Z,0.00
2022-12-28T02:22:54.365Z,0.00
2022-12-28T02:23:54.556Z,0.00
2022-12-28T02:25:11.336Z,0.00
2022-12-28T02:25:55.915Z,0.00
2022-12-28T02:26:55.090Z,0.00
2022-12-28T02:27:55.272Z,0.00
2022-12-28T02:28:55.449Z,0.00
2022-12-28T02:29:55.639Z,0.00
2022-12-28T02:30:55.809Z,0.00
2022-12-28T02:31:55.955Z,0.00
2022-12-28T02:32:56.105Z,0.00
2022-12-28T02:33:56.298Z,0.00
2022-12-28T02:34:56.476Z,0.00
2022-12-28T02:35:56.635Z,0.00
2022-12-28T02:36:56.782Z,0.00
2022-12-28T02:37:56.954Z,0.00
2022-12-28T02:38:57.112Z,0.00
2022-12-28T02:39:57.314Z,0.00
2022-12-28T02:40:57.478Z,0.00
2022-12-28T02:41:57.666Z,0.00
2022-12-28T02:42:57.833Z,0.00
2022-12-28T02:43:58.025Z,0.00
2022-12-28T02:44:58.195Z,0.00
2022-12-28T02:45:58.393Z,0.00
2022-12-28T02:46:58.539Z,0.00
2022-12-28T02:47:58.732Z,0.00
2022-12-28T02:48:58.883Z,0.00
2022-12-28T02:49:59.070Z,0.00
2022-12-28T02:50:59.220Z,0.00
2022-12-28T02:51:59.373Z,0.00
2022-12-28T02:52:59.532Z,0.00
2022-12-28T02:53:59.730Z,0.00
2022-12-28T02:54:59.893Z,0.00
2022-12-28T02:56:00.052Z,0.00
2022-12-28T02:57:00.202Z,0.00
2022-12-28T02:58:00.403Z,0.00
2022-12-28T02:59:00.563Z,0.00
2022-12-28T03:00:00.772Z,0.00
2022-12-28T03:01:01.015Z,0.00
2022-12-28T03:02:01.150Z,0.00
2022-12-28T03:03:01.401Z,0.00
2022-12-28T03:04:01.462Z,0.00
2022-12-28T03:05:01.635Z,0.00
2022-12-28T03:06:01.791Z,0.00
2022-12-28T03:07:01.948Z,0.00
2022-12-28T03:08:02.138Z,0.00
2022-12-28T03:09:02.321Z,0.00
2022-12-28T03:10:02.534Z,0.00
2022-12-28T03:11:02.681Z,0.00
2022-12-28T03:12:02.899Z,0.00
2022-12-28T03:13:03.053Z,0.00
2022-12-28T03:14:03.211Z,0.00
2022-12-28T03:15:03.398Z,0.00
2022-12-28T03:16:03.609Z,0.00
2022-12-28T03:17:03.737Z,0.00
2022-12-28T03:18:03.947Z,0.00
2022-12-28T03:19:04.090Z,0.00
2022-12-28T03:20:04.290Z,0.00
2022-12-28T03:21:04.451Z,0.00
2022-12-28T03:22:04.640Z,0.00
2022-12-28T03:23:04.793Z,0.00
2022-12-28T03:24:04.978Z,0.00
2022-12-28T03:25:05.149Z,0.00
2022-12-28T03:26:05.319Z,0.00
2022-12-28T03:27:05.466Z,0.00
2022-12-28T03:28:05.659Z,0.00
2022-12-28T03:29:05.811Z,0.00
2022-12-28T03:30:06.015Z,0.00
2022-12-28T03:31:06.213Z,0.00
2022-12-28T03:32:06.340Z,0.00
2022-12-28T03:33:06.533Z,0.00
2022-12-28T03:34:06.953Z,0.00
2022-12-28T03:35:06.919Z,0.00
2022-12-28T03:36:07.079Z,0.00
2022-12-28T03:37:07.247Z,0.00
2022-12-28T03:38:07.420Z,0.00
2022-12-28T03:39:07.609Z,0.00
2022-12-28T03:40:07.784Z,0.00
2022-12-28T03:41:07.947Z,0.00
2022-12-28T03:42:08.099Z,0.00
2022-12-28T03:43:08.356Z,0.00
2022-12-28T03:44:08.450Z,0.00
2022-12-28T03:45:08.668Z,0.00
2022-12-28T03:46:08.876Z,0.00
2022-12-28T03:47:08.998Z,0.00
2022-12-28T03:48:09.156Z,0.00
2022-12-28T03:49:09.355Z,0.00
2022-12-28T03:50:09.522Z,0.00
2022-12-28T03:51:09.679Z,0.00
2022-12-28T03:52:09.840Z,0.00
2022-12-28T03:53:10.039Z,0.00
2022-12-28T03:54:10.196Z,0.00
2022-12-28T03:55:10.412Z,0.00
2022-12-28T03:56:10.571Z,0.00
2022-12-28T03:57:10.777Z,0.00
2022-12-28T03:58:10.922Z,0.00
2022-12-28T03:59:11.108Z,0.00
2022-12-28T04:00:11.279Z,0.00
2022-12-28T04:01:11.558Z,0.00
2022-12-28T04:02:11.731Z,0.00
2022-12-28T04:03:11.868Z,0.00
2022-12-28T04:04:11.981Z,0.00
2022-12-28T04:05:12.187Z,0.00
2022-12-28T04:06:12.348Z,0.00
2022-12-28T04:07:12.536Z,0.00
2022-12-28T04:08:12.695Z,0.00
2022-12-28T04:09:12.888Z,0.00
2022-12-28T04:10:13.057Z,0.00
2022-12-28T04:11:13.223Z,0.00
2022-12-28T04:12:13.377Z,0.00
2022-12-28T04:13:13.566Z,0.00
2022-12-28T04:14:13.725Z,0.00
2022-12-28T04:15:13.937Z,0.00
2022-12-28T04:16:14.173Z,0.00
2022-12-28T04:17:14.291Z,0.00
2022-12-28T04:18:14.467Z,0.00
2022-12-28T04:19:14.655Z,0.00
2022-12-28T04:20:14.867Z,0.00
2022-12-28T04:21:15.027Z,0.00
2022-12-28T04:22:15.217Z,0.00
2022-12-28T04:23:15.388Z,0.00
2022-12-28T04:24:15.528Z,0.00
2022-12-28T04:25:15.735Z,0.00
2022-12-28T04:26:15.895Z,0.00
2022-12-28T04:27:16.082Z,0.00
2022-12-28T04:28:16.233Z,0.00
2022-12-28T04:29:16.424Z,0.00
2022-12-28T04:30:16.626Z,0.00
2022-12-28T04:31:16.824Z,0.00
2022-12-28T04:32:16.959Z,0.00
2022-12-28T04:33:17.157Z,0.00
2022-12-28T04:34:17.311Z,0.00
2022-12-28T04:35:17.505Z,0.00
2022-12-28T04:36:17.664Z,0.00
2022-12-28T04:37:17.857Z,0.00
2022-12-28T04:38:18.023Z,0.00
2022-12-28T04:39:18.196Z,0.00
2022-12-28T04:40:18.398Z,0.00
2022-12-28T04:41:18.558Z,0.00
2022-12-28T04:42:18.704Z,0.00
2022-12-28T04:43:18.897Z,0.00
2022-12-28T04:44:19.055Z,0.00
2022-12-28T04:45:22.229Z,0.00
2022-12-28T04:46:19.435Z,0.00
2022-12-28T04:47:19.591Z,0.00
2022-12-28T04:48:19.744Z,0.00
2022-12-28T04:49:19.909Z,0.00
2022-12-28T04:50:20.072Z,0.00
2022-12-28T04:51:20.234Z,0.00
2022-12-28T04:52:20.385Z,0.00
2022-12-28T04:53:20.583Z,0.00
2022-12-28T04:54:20.781Z,0.00
2022-12-28T04:55:32.254Z,0.00
2022-12-28T04:56:22.101Z,0.00
2022-12-28T04:57:21.291Z,0.00
2022-12-28T04:58:21.463Z,0.00
2022-12-28T04:59:21.630Z,0.00
2022-12-28T05:00:21.805Z,0.00
2022-12-28T05:01:22.024Z,0.00
2022-12-28T05:02:22.227Z,0.00
2022-12-28T05:03:22.312Z,0.00
2022-12-28T05:04:22.476Z,0.00
2022-12-28T05:05:22.674Z,0.00
2022-12-28T05:06:22.832Z,0.00
2022-12-28T05:07:23.032Z,0.00
2022-12-28T05:08:23.180Z,0.00
2022-12-28T05:09:23.371Z,0.00
2022-12-28T05:10:23.546Z,0.00
2022-12-28T05:11:23.706Z,0.00
2022-12-28T05:12:23.896Z,0.00
2022-12-28T05:13:24.052Z,0.00
2022-12-28T05:14:24.217Z,0.00
2022-12-28T05:15:24.411Z,0.00
2022-12-28T05:16:24.662Z,0.00
2022-12-28T05:17:24.778Z,0.00
2022-12-28T05:18:24.915Z,0.00
2022-12-28T05:19:25.075Z,0.00
2022-12-28T05:20:25.253Z,0.00
2022-12-28T05:21:25.401Z,0.00
2022-12-28T05:22:25.551Z,0.00
2022-12-28T05:23:25.749Z,0.00
2022-12-28T05:24:25.900Z,0.00
2022-12-28T05:25:26.124Z,0.00
2022-12-28T05:26:26.261Z,0.00
2022-12-28T05:27:26.454Z,0.00
2022-12-28T05:28:26.611Z,0.00
2022-12-28T05:29:26.802Z,0.00
2022-12-28T05:30:26.969Z,0.00
2022-12-28T05:31:27.219Z,0.00
2022-12-28T05:32:27.279Z,0.00
2022-12-28T05:33:27.480Z,0.00
2022-12-28T05:34:27.631Z,0.00
2022-12-28T05:35:27.842Z,0.00
2022-12-28T05:36:27.999Z,0.00
2022-12-28T05:37:28.164Z,0.00
2022-12-28T05:38:28.340Z,0.00
2022-12-28T05:39:28.569Z,0.00
2022-12-28T05:40:28.709Z,0.00
2022-12-28T05:41:28.908Z,0.00
2022-12-28T05:42:29.059Z,0.00
2022-12-28T05:43:29.250Z,0.00
2022-12-28T05:44:29.433Z,0.00
2022-12-28T05:45:29.600Z,0.00
2022-12-28T05:46:29.777Z,0.00
2022-12-28T05:47:29.949Z,0.00
2022-12-28T05:48:30.100Z,0.00
2022-12-28T05:49:30.310Z,0.00
2022-12-28T05:50:30.489Z,0.00
2022-12-28T05:51:30.658Z,0.00
2022-12-28T05:52:30.812Z,0.00
2022-12-28T05:53:31.002Z,0.00
2022-12-28T05:54:31.191Z,0.00
2022-12-28T05:55:31.400Z,0.00
2022-12-28T05:56:31.549Z,0.00
2022-12-28T05:57:31.740Z,0.00
2022-12-28T05:58:31.930Z,0.00
2022-12-28T05:59:32.128Z,0.00
2022-12-28T06:00:32.305Z,0.00
2022-12-28T06:01:32.653Z,0.00
2022-12-28T06:02:32.673Z,0.00
2022-12-28T06:03:32.887Z,0.00
2022-12-28T06:04:32.998Z,0.00
2022-12-28T06:05:33.161Z,0.00
2022-12-28T06:06:33.320Z,0.00
2022-12-28T06:07:33.507Z,0.00
2022-12-28T06:08:33.697Z,0.00
2022-12-28T06:09:33.898Z,0.00
2022-12-28T06:10:34.067Z,0.00
2022-12-28T06:11:34.251Z,0.00
2022-12-28T06:12:34.411Z,0.00
2022-12-28T06:13:34.606Z,0.00
2022-12-28T06:14:34.787Z,0.00
2022-12-28T06:15:34.928Z,0.00
2022-12-28T06:16:35.122Z,0.00
2022-12-28T06:17:35.266Z,0.00
2022-12-28T06:18:35.426Z,0.00
2022-12-28T06:19:35.615Z,0.00
2022-12-28T06:20:35.776Z,0.00
2022-12-28T06:21:35.941Z,0.00
2022-12-28T06:22:36.134Z,0.00
2022-12-28T06:23:36.266Z,0.00
2022-12-28T06:24:36.429Z,0.00
2022-12-28T06:25:36.626Z,0.00
2022-12-28T06:26:36.801Z,0.00
2022-12-28T06:27:36.976Z,0.00
2022-12-28T06:28:37.141Z,0.00
2022-12-28T06:29:37.296Z,0.00
2022-12-28T06:30:37.464Z,0.00
2022-12-28T06:31:37.679Z,0.00
2022-12-28T06:32:37.782Z,0.00
2022-12-28T06:33:37.974Z,0.00
2022-12-28T06:34:38.141Z,0.00
2022-12-28T06:35:38.295Z,0.00
2022-12-28T06:36:38.458Z,0.00
2022-12-28T06:37:38.639Z,0.00
2022-12-28T06:38:38.766Z,0.00
2022-12-28T06:39:38.953Z,0.00
2022-12-28T06:41:11.603Z,0.00
2022-12-28T06:41:40.295Z,0.00
2022-12-28T06:42:39.456Z,0.00
2022-12-28T06:43:39.658Z,0.00
2022-12-28T06:44:44.498Z,0.00
2022-12-28T06:45:41.040Z,0.00
2022-12-28T06:46:40.171Z,0.00
2022-12-28T06:47:40.351Z,0.00
2022-12-28T06:48:40.594Z,0.00
2022-12-28T06:49:40.715Z,0.00
2022-12-28T06:50:40.921Z,0.00
2022-12-28T06:51:41.081Z,0.00
2022-12-28T06:52:41.262Z,0.00
2022-12-28T06:53:41.460Z,0.00
2022-12-28T06:54:41.633Z,0.00
2022-12-28T06:55:41.816Z,0.00
2022-12-28T06:56:41.982Z,0.00
2022-12-28T06:57:42.171Z,0.00
2022-12-28T06:58:42.346Z,0.00
2022-12-28T06:59:42.527Z,0.00
2022-12-28T07:00:42.681Z,0.00
2022-12-28T07:01:42.953Z,0.00
2022-12-28T07:02:43.116Z,0.00
2022-12-28T07:03:43.222Z,0.00
2022-12-28T07:04:43.391Z,0.00
2022-12-28T07:05:43.579Z,0.00
2022-12-28T07:06:43.783Z,0.00
2022-12-28T07:07:43.913Z,0.00
2022-12-28T07:08:44.095Z,0.00
2022-12-28T07:09:44.269Z,0.00
2022-12-28T07:10:44.446Z,0.00
2022-12-28T07:11:44.695Z,0.00
2022-12-28T07:12:44.801Z,0.00
2022-12-28T07:13:44.982Z,0.00
2022-12-28T07:14:45.156Z,0.00
2022-12-28T07:15:45.327Z,0.00
2022-12-28T07:16:45.510Z,0.00
2022-12-28T07:17:45.693Z,0.00
2022-12-28T07:18:45.857Z,0.00
2022-12-28T07:19:46.040Z,5.62
2022-12-28T07:20:46.210Z,5.62
2022-12-28T07:21:46.420Z,5.62
2022-12-28T07:22:46.581Z,5.62
2022-12-28T07:23:46.753Z,5.62
2022-12-28T07:24:46.956Z,5.62
2022-12-28T07:25:47.120Z,5.62
2022-12-28T07:26:47.348Z,5.62
2022-12-28T07:27:47.496Z,5.62
2022-12-28T07:28:47.657Z,5.62
2022-12-28T07:29:47.849Z,11.25
2022-12-28T07:30:48.071Z,11.25
2022-12-28T07:31:48.225Z,11.25
2022-12-28T07:32:48.359Z,11.25
2022-12-28T07:33:48.553Z,11.25
2022-12-28T07:34:48.703Z,11.25
2022-12-28T07:35:48.868Z,11.25
2022-12-28T07:36:49.062Z,11.25
2022-12-28T07:37:49.238Z,11.25
2022-12-28T07:38:49.431Z,16.88
2022-12-28T07:39:49.607Z,16.88
2022-12-28T07:40:49.760Z,16.88
2022-12-28T07:41:50.010Z,16.88
2022-12-28T07:42:50.106Z,16.88
2022-12-28T07:43:50.299Z,16.88
2022-12-28T07:44:50.473Z,16.88
2022-12-28T07:45:50.714Z,16.88
2022-12-28T07:46:50.839Z,16.88
2022-12-28T07:47:50.977Z,16.88
2022-12-28T07:48:51.168Z,16.88
2022-12-28T07:49:51.366Z,16.88
2022-12-28T07:50:51.508Z,16.88
2022-12-28T07:51:51.688Z,16.88
2022-12-28T07:52:51.883Z,16.88
2022-12-28T07:53:52.074Z,16.88
2022-12-28T07:54:52.295Z,16.88
2022-12-28T07:55:52.436Z,16.88
2022-12-28T07:56:52.688Z,22.50
2022-12-28T07:57:52.781Z,22.50
2022-12-28T07:59:30.917Z,22.50
2022-12-28T08:00:27.632Z,22.50
2022-12-28T08:01:27.881Z,28.12
2022-12-28T08:02:28.117Z,28.12
2022-12-28T08:03:28.178Z,28.12
2022-12-28T08:04:28.353Z,33.75
2022-12-28T08:05:28.534Z,33.75
2022-12-28T08:06:28.740Z,39.38
2022-12-28T08:07:28.874Z,45.00
2022-12-28T08:08:29.067Z,50.62
2022-12-28T08:09:29.222Z,50.62
2022-12-28T08:10:29.424Z,45.00
2022-12-28T08:11:29.613Z,45.00
2022-12-28T08:12:29.755Z,45.00
2022-12-28T08:13:29.935Z,45.00
2022-12-28T08:14:30.104Z,45.00
2022-12-28T08:15:30.345Z,50.62
2022-12-28T08:16:30.477Z,45.00
2022-12-28T08:17:30.614Z,45.00
2022-12-28T08:18:30.808Z,50.62
2022-12-28T08:19:30.990Z,50.62
2022-12-28T08:20:31.167Z,56.25
2022-12-28T08:21:31.360Z,61.88
2022-12-28T08:22:31.514Z,61.88
2022-12-28T08:23:31.671Z,67.50
2022-12-28T08:24:31.865Z,67.50
2022-12-28T08:25:32.015Z,67.50
2022-12-28T08:26:32.204Z,73.12
2022-12-28T08:27:38.304Z,84.38
2022-12-28T08:28:33.512Z,90.00
2022-12-28T08:29:32.710Z,84.38
2022-12-28T08:30:32.889Z,78.75
2022-12-28T08:31:33.090Z,84.38
2022-12-28T08:32:33.219Z,84.38
2022-12-28T08:33:33.372Z,84.38
2022-12-28T08:34:33.542Z,84.38
2022-12-28T08:35:33.700Z,95.62
2022-12-28T08:36:33.898Z,106.88
2022-12-28T08:37:34.033Z,118.12
2022-12-28T08:38:34.222Z,123.75
2022-12-28T08:39:34.392Z,135.00
2022-12-28T08:40:34.581Z,112.50
2022-12-28T08:41:34.778Z,112.50
2022-12-28T08:42:34.951Z,101.25
2022-12-28T08:43:35.133Z,95.62
2022-12-28T08:44:35.296Z,78.75
2022-12-28T08:45:35.476Z,90.00
2022-12-28T08:46:35.736Z,123.75
2022-12-28T08:47:35.810Z,180.00
2022-12-28T08:48:36.006Z,196.88
2022-12-28T08:49:36.170Z,135.00
2022-12-28T08:50:36.367Z,123.75
2022-12-28T08:51:36.551Z,135.00
2022-12-28T08:52:36.725Z,123.75
2022-12-28T08:53:36.900Z,129.38
2022-12-28T08:54:37.092Z,129.38
2022-12-28T08:55:37.270Z,129.38
2022-12-28T08:56:37.486Z,129.38
2022-12-28T08:57:37.643Z,129.38
2022-12-28T08:58:37.802Z,140.62
2022-12-28T08:59:37.990Z,146.25
2022-12-28T09:00:38.177Z,140.62
2022-12-28T09:01:43.845Z,129.38
2022-12-28T09:02:39.836Z,123.75
2022-12-28T09:03:38.750Z,123.75
2022-12-28T09:04:38.889Z,135.00
2022-12-28T09:05:39.833Z,140.62
2022-12-28T09:06:39.276Z,129.38
2022-12-28T09:07:39.420Z,112.50
2022-12-28T09:08:39.608Z,95.62
2022-12-28T09:09:39.799Z,95.62
2022-12-28T09:10:39.931Z,112.50
2022-12-28T09:11:40.139Z,129.38
2022-12-28T09:12:40.351Z,146.25
2022-12-28T09:13:40.464Z,168.75
2022-12-28T09:14:40.648Z,174.38
2022-12-28T09:15:40.855Z,157.50
2022-12-28T09:16:41.009Z,151.88
2022-12-28T09:17:41.153Z,151.88
2022-12-28T09:18:41.335Z,151.88
2022-12-28T09:19:41.513Z,146.25
2022-12-28T09:20:47.517Z,140.62
2022-12-28T09:21:42.869Z,140.62
2022-12-28T09:22:42.028Z,135.00
2022-12-28T09:23:42.208Z,129.38
2022-12-28T09:24:42.394Z,129.38
2022-12-28T09:25:42.568Z,123.75
2022-12-28T09:26:42.779Z,129.38
2022-12-28T09:27:42.917Z,123.75
2022-12-28T09:28:43.100Z,140.62
2022-12-28T09:29:43.272Z,146.25
2022-12-28T09:30:43.458Z,151.88
2022-12-28T09:31:43.753Z,146.25
2022-12-28T09:32:43.818Z,123.75
2022-12-28T09:34:13.902Z,118.12
2022-12-28T09:34:45.220Z,129.38
2022-12-28T09:35:44.369Z,135.00
2022-12-28T09:36:44.563Z,140.62
2022-12-28T09:37:44.738Z,140.62
2022-12-28T09:38:44.940Z,146.25
2022-12-28T09:39:45.118Z,151.88
2022-12-28T09:40:45.280Z,163.12
2022-12-28T09:41:45.455Z,168.75
2022-12-28T09:42:45.589Z,163.12
2022-12-28T09:43:45.804Z,151.88
2022-12-28T09:44:45.971Z,140.62
2022-12-28T09:45:46.159Z,146.25
2022-12-28T09:46:48.902Z,146.25
2022-12-28T09:47:46.479Z,146.25
2022-12-28T09:48:46.658Z,140.62
2022-12-28T09:49:46.858Z,129.38
2022-12-28T09:50:47.040Z,123.75
2022-12-28T09:51:47.217Z,129.38
2022-12-28T09:52:49.849Z,140.62
2022-12-28T09:53:47.582Z,146.25
2022-12-28T09:54:47.777Z,151.88
2022-12-28T09:55:47.918Z,151.88
2022-12-28T09:56:48.112Z,146.25
2022-12-28T09:57:48.287Z,157.50
2022-12-28T09:58:48.459Z,168.75
2022-12-28T09:59:48.655Z,174.38
2022-12-28T10:00:48.808Z,185.62
2022-12-28T10:01:49.066Z,191.25
2022-12-28T10:02:49.248Z,208.12
2022-12-28T10:03:49.334Z,219.38
2022-12-28T10:04:49.654Z,213.75
2022-12-28T10:05:49.697Z,185.62
2022-12-28T10:06:49.847Z,151.88
2022-12-28T10:07:50.038Z,135.00
2022-12-28T10:08:50.226Z,129.38
2022-12-28T10:09:50.425Z,135.00
2022-12-28T10:10:50.579Z,146.25
2022-12-28T10:11:50.752Z,151.88
2022-12-28T10:12:50.928Z,157.50
2022-12-28T10:13:55.394Z,146.25
2022-12-28T10:14:52.316Z,157.50
2022-12-28T10:15:51.668Z,174.38
2022-12-28T10:16:51.666Z,191.25
2022-12-28T10:17:51.800Z,196.88
2022-12-28T10:18:51.988Z,219.38
2022-12-28T10:19:52.191Z,225.00
2022-12-28T10:20:52.324Z,213.75
2022-12-28T10:21:52.496Z,191.25
2022-12-28T10:22:52.697Z,168.75
2022-12-28T10:24:54.081Z,191.25
2022-12-28T10:25:53.236Z,202.50
2022-12-28T10:26:53.417Z,213.75
2022-12-28T10:27:53.607Z,196.88
2022-12-28T10:28:53.798Z,174.38
2022-12-28T10:29:53.994Z,146.25
2022-12-28T10:30:54.140Z,135.00
2022-12-28T10:31:54.318Z,135.00
2022-12-28T10:32:59.680Z,135.00
2022-12-28T10:33:55.656Z,146.25
2022-12-28T10:34:54.864Z,135.00
2022-12-28T10:35:55.012Z,135.00
2022-12-28T10:36:55.205Z,129.38
2022-12-28T10:37:55.373Z,135.00
2022-12-28T10:38:55.557Z,151.88
2022-12-28T10:39:55.772Z,163.12
2022-12-28T10:40:55.906Z,168.75
2022-12-28T10:41:56.095Z,196.88
2022-12-28T10:42:56.274Z,230.62
2022-12-28T10:44:29.227Z,253.12
2022-12-28T10:44:57.633Z,275.62
2022-12-28T10:45:56.786Z,292.50
2022-12-28T10:46:57.015Z,298.12
2022-12-28T10:47:57.148Z,275.62
2022-12-28T10:48:57.344Z,270.00
2022-12-28T10:50:58.737Z,258.75
2022-12-28T10:51:57.905Z,270.00
2022-12-28T10:52:58.060Z,264.38
2022-12-28T10:53:58.266Z,275.62
2022-12-28T10:55:08.475Z,286.88
2022-12-28T10:55:59.573Z,286.88
2022-12-28T10:56:58.784Z,286.88
2022-12-28T10:59:00.144Z,326.25
2022-12-28T10:59:59.316Z,337.50
2022-12-28T11:00:59.580Z,337.50
2022-12-28T11:01:59.777Z,326.25
2022-12-28T11:02:59.946Z,315.00
2022-12-28T11:04:00.031Z,326.25
2022-12-28T11:05:00.180Z,320.62
2022-12-28T11:06:00.328Z,326.25
2022-12-28T11:07:00.525Z,326.25
2022-12-28T11:08:00.698Z,320.62
2022-12-28T11:09:00.874Z,303.75
2022-12-28T11:10:01.100Z,303.75
2022-12-28T11:11:01.236Z,286.88
2022-12-28T11:12:01.395Z,253.12
2022-12-28T11:13:01.568Z,241.88
2022-12-28T11:14:01.708Z,230.62
2022-12-28T11:15:01.886Z,213.75
2022-12-28T11:16:02.124Z,202.50
2022-12-28T11:17:02.228Z,185.62
2022-12-28T11:18:02.420Z,168.75
2022-12-28T11:19:02.584Z,163.12
2022-12-28T11:20:02.794Z,163.12
2022-12-28T11:21:02.932Z,168.75
2022-12-28T11:22:03.112Z,185.62
2022-12-28T11:23:03.296Z,196.88
2022-12-28T11:24:03.489Z,208.12
2022-12-28T11:25:03.652Z,213.75
2022-12-28T11:26:03.801Z,213.75
2022-12-28T11:27:03.985Z,208.12
2022-12-28T11:28:04.163Z,208.12
2022-12-28T11:29:04.347Z,208.12
2022-12-28T11:30:04.570Z,213.75
2022-12-28T11:31:04.703Z,219.38
2022-12-28T11:32:04.893Z,230.62
2022-12-28T11:33:05.056Z,225.00
2022-12-28T11:34:05.222Z,225.00
2022-12-28T11:35:05.362Z,219.38
2022-12-28T11:36:09.938Z,213.75
2022-12-28T11:37:05.703Z,208.12
2022-12-28T11:38:05.900Z,202.50
2022-12-28T11:39:06.042Z,196.88
2022-12-28T11:40:06.235Z,185.62
2022-12-28T11:41:06.455Z,180.00
2022-12-28T11:43:07.769Z,180.00
2022-12-28T11:44:06.914Z,180.00
2022-12-28T11:45:07.093Z,180.00
2022-12-28T11:46:07.328Z,185.62
2022-12-28T11:47:07.443Z,185.62
2022-12-28T11:48:07.642Z,185.62
2022-12-28T11:49:07.792Z,191.25
2022-12-28T11:50:07.974Z,191.25
2022-12-28T11:51:08.152Z,196.88
2022-12-28T11:52:08.343Z,191.25
2022-12-28T11:53:13.720Z,191.25
2022-12-28T11:54:09.703Z,208.12
2022-12-28T11:55:08.850Z,208.12
2022-12-28T11:56:09.051Z,213.75
2022-12-28T11:57:09.198Z,225.00
2022-12-28T11:58:09.402Z,213.75
2022-12-28T11:59:09.562Z,202.50
2022-12-28T12:00:09.728Z,208.12
2022-12-28T12:01:09.967Z,225.00
2022-12-28T12:02:10.117Z,230.62
2022-12-28T12:03:10.346Z,213.75
2022-12-28T12:04:10.454Z,208.12
2022-12-28T12:05:10.630Z,196.88
2022-12-28T12:06:10.813Z,208.12
2022-12-28T12:07:10.992Z,208.12
2022-12-28T12:08:11.204Z,213.75
2022-12-28T12:09:11.345Z,219.38
2022-12-28T12:10:11.561Z,219.38
2022-12-28T12:11:11.694Z,202.50
2022-12-28T12:12:17.268Z,208.12
2022-12-28T12:13:13.031Z,219.38
2022-12-28T12:14:12.226Z,253.12
2022-12-28T12:15:12.411Z,286.88
2022-12-28T12:16:12.564Z,258.75
2022-12-28T12:17:12.750Z,258.75
2022-12-28T12:18:12.923Z,258.75
2022-12-28T12:19:13.084Z,292.50
2022-12-28T12:20:13.314Z,309.38
2022-12-28T12:21:16.056Z,281.25
2022-12-28T12:22:13.582Z,258.75
2022-12-28T12:23:13.760Z,258.75
2022-12-28T12:24:13.942Z,253.12
2022-12-28T12:25:14.133Z,241.88
2022-12-28T12:26:14.282Z,247.50
2022-12-28T12:27:14.461Z,241.88
2022-12-28T12:28:14.661Z,230.62
2022-12-28T12:29:14.839Z,230.62
2022-12-28T12:30:15.005Z,236.25
2022-12-28T12:31:15.248Z,236.25
2022-12-28T12:32:15.373Z,236.25
2022-12-28T12:33:15.570Z,230.62
2022-12-28T12:34:19.492Z,236.25
2022-12-28T12:35:15.884Z,236.25
2022-12-28T12:36:16.074Z,241.88
2022-12-28T12:37:16.254Z,247.50
2022-12-28T12:38:16.443Z,253.12
2022-12-28T12:39:16.591Z,247.50
2022-12-28T12:40:16.772Z,241.88
2022-12-28T12:41:16.958Z,236.25
2022-12-28T12:42:17.121Z,241.88
2022-12-28T12:43:17.315Z,241.88
2022-12-28T12:44:17.477Z,241.88
2022-12-28T12:45:17.652Z,236.25
2022-12-28T12:46:17.907Z,236.25
2022-12-28T12:47:18.012Z,241.88
2022-12-28T12:48:18.223Z,236.25
2022-12-28T12:49:18.362Z,241.88
2022-12-28T12:50:18.572Z,241.88
2022-12-28T12:51:18.711Z,241.88
2022-12-28T12:52:18.889Z,236.25
2022-12-28T12:53:19.061Z,241.88
2022-12-28T12:54:19.253Z,247.50
2022-12-28T12:55:19.452Z,247.50
2022-12-28T12:56:19.622Z,241.88
2022-12-28T12:57:19.803Z,230.62
2022-12-28T12:58:19.988Z,213.75
2022-12-28T12:59:20.176Z,196.88
2022-12-28T13:00:20.382Z,191.25
2022-12-28T13:01:20.609Z,185.62
2022-12-28T13:02:20.941Z,180.00
2022-12-28T13:03:20.947Z,180.00
2022-12-28T13:04:21.054Z,180.00
2022-12-28T13:05:21.239Z,185.62